Time;durP1;ratioP1;P1;durP2;ratioP2;P2;SDS_P1;SDS_P2;PMS_P1;PMS_P2;Temp;Humidity;BMP_temperature;BMP_pressure;BME280_temperature;BME280_humidity;BME280_pressure;Samples;Min_cycle;Max_cycle;Signal;HPM_P1;HPM_P2
2021/06/01 00:00:48;;;;;;;7.57;2.50;;;19.20;58.30;;;;;;5052367;28;20044;-64
2021/06/01 00:03:53;;;;;;;6.07;2.42;;;19.30;57.60;;;;;;5052248;28;20557;-64
2021/06/01 00:06:56;;;;;;;9.35;2.90;;;19.30;57.50;;;;;;5052412;28;20408;-64
2021/06/01 00:10:01;;;;;;;4.97;2.50;;;19.30;58.30;;;;;;5052323;28;20048;-64
2021/06/01 00:13:06;;;;;;;5.97;3.33;;;19.30;57.70;;;;;;5051417;28;20037;-64
2021/06/01 00:16:11;;;;;;;8.98;2.45;;;19.20;58.30;;;;;;5052397;28;20041;-64
2021/06/01 00:19:16;;;;;;;7.43;2.30;;;19.10;58.40;;;;;;5052440;28;20044;-64
2021/06/01 00:22:21;;;;;;;6.97;2.92;;;19.10;58.10;;;;;;5052596;28;20056;-64
2021/06/01 00:25:25;;;;;;;3.95;2.67;;;19.10;58.50;;;;;;5052169;28;20032;-64
2021/06/01 00:28:29;;;;;;;5.18;2.80;;;19.00;58.40;;;;;;5052004;28;20042;-64
2021/06/01 00:31:41;;;;;;;7.65;3.03;;;19.00;58.40;;;;;;5052222;28;20048;-64
2021/06/01 00:34:45;;;;;;;6.18;2.83;;;19.00;60.00;;;;;;5051906;28;20052;-64
2021/06/01 00:37:49;;;;;;;7.88;3.13;;;19.00;59.70;;;;;;5052172;28;20041;-64
2021/06/01 00:40:53;;;;;;;7.95;2.70;;;19.00;61.20;;;;;;5051701;28;20041;-64
2021/06/01 00:43:58;;;;;;;12.88;2.58;;;19.00;61.30;;;;;;5051168;28;20536;-64
2021/06/01 00:47:02;;;;;;;7.88;2.80;;;18.90;61.40;;;;;;5052037;28;20051;-64
2021/06/01 00:50:06;;;;;;;6.93;3.00;;;18.90;61.40;;;;;;5051847;28;20072;-64
2021/06/01 00:53:10;;;;;;;7.03;3.90;;;18.80;61.80;;;;;;5051482;28;20033;-64
2021/06/01 00:56:15;;;;;;;8.90;3.08;;;18.80;62.00;;;;;;5051311;28;20407;-64
2021/06/01 00:59:19;;;;;;;5.68;3.40;;;18.80;62.80;;;;;;5050714;28;20033;-64
2021/06/01 01:02:22;;;;;;;13.80;3.05;;;18.70;63.20;;;;;;5051272;28;20048;-64
2021/06/01 01:05:33;;;;;;;8.93;2.67;;;18.60;62.90;;;;;;5051542;28;20060;-64
2021/06/01 01:12:21;;;;;;;5.63;2.97;;;18.50;62.60;;;;;;5050757;28;20044;-64
2021/06/01 01:15:25;;;;;;;12.38;3.15;;;18.40;63.00;;;;;;5051723;28;20047;-64
2021/06/01 01:18:33;;;;;;;8.35;3.13;;;18.40;62.80;;;;;;5051529;28;20059;-64
2021/06/01 01:21:42;;;;;;;7.63;3.05;;;18.40;61.90;;;;;;5051248;28;20059;-64
2021/06/01 01:25:04;;;;;;;9.68;3.67;;;18.40;62.20;;;;;;5050908;28;20041;-64
2021/06/01 01:28:45;;;;;;;7.03;3.28;;;18.30;62.00;;;;;;5051017;28;20393;-64
2021/06/01 01:31:52;;;;;;;6.30;3.10;;;18.30;62.90;;;;;;5049900;28;20468;-63
2021/06/01 01:34:58;;;;;;;11.80;3.72;;;18.20;63.80;;;;;;5051072;28;20040;-64
2021/06/01 01:38:03;;;;;;;9.57;4.10;;;18.20;63.80;;;;;;5050291;28;20052;-64
2021/06/01 01:41:11;;;;;;;7.93;3.40;;;18.30;64.30;;;;;;5051023;28;20033;-64
2021/06/01 01:44:17;;;;;;;9.55;3.08;;;18.20;64.80;;;;;;5051342;28;20037;-64
2021/06/01 01:50:40;;;;;;;7.43;3.60;;;18.10;65.30;;;;;;5008807;28;20141;-64
2021/06/01 01:53:53;;;;;;;12.93;3.17;;;17.90;66.10;;;;;;4950624;28;20546;-64
2021/06/01 01:56:44;;;;;;;9.27;3.70;;;17.80;66.60;;;;;;4950363;29;20144;-64
2021/06/01 02:00:10;;;;;;;6.50;3.35;;;17.70;65.90;;;;;;4950456;29;20039;-64
2021/06/01 02:03:16;;;;;;;8.07;3.75;;;17.70;65.90;;;;;;4949812;29;20078;-64
2021/06/01 02:06:20;;;;;;;11.95;3.85;;;17.80;66.20;;;;;;4950483;29;20031;-64
2021/06/01 02:09:24;;;;;;;10.10;3.60;;;17.80;66.30;;;;;;4950532;29;20050;-64
2021/06/01 02:12:30;;;;;;;10.65;3.70;;;17.70;67.20;;;;;;4950735;29;20621;-64
2021/06/01 02:15:34;;;;;;;10.43;3.53;;;17.70;67.30;;;;;;4950069;29;20050;-64
2021/06/01 02:18:38;;;;;;;6.40;3.35;;;17.60;67.60;;;;;;4950085;29;20054;-64
2021/06/01 02:25:14;;;;;;;8.23;3.83;;;17.50;66.90;;;;;;4949859;29;20046;-64
2021/06/01 02:28:26;;;;;;;6.95;3.30;;;17.50;66.70;;;;;;4981171;28;20486;-64
2021/06/01 02:31:41;;;;;;;6.55;3.67;;;17.60;66.80;;;;;;5040090;28;20048;-64
2021/06/01 02:34:49;;;;;;;8.80;3.80;;;17.70;67.10;;;;;;5050109;28;20033;-65
2021/06/01 02:37:55;;;;;;;11.25;4.20;;;17.60;67.60;;;;;;5054205;28;20049;-64
2021/06/01 02:40:43;;;;;;;11.43;3.95;;;17.60;68.60;;;;;;5054828;28;20040;-64
2021/06/01 02:43:28;;;;;;;12.88;3.78;;;17.50;69.10;;;;;;5054967;28;20337;-64
2021/06/01 02:46:33;;;;;;;10.80;4.00;;;17.40;70.00;;;;;;5053271;28;20048;-64
2021/06/01 02:49:37;;;;;;;9.15;3.88;;;17.30;69.50;;;;;;5053729;28;20048;-64
2021/06/01 02:52:42;;;;;;;6.75;3.95;;;17.20;69.00;;;;;;5053860;28;20033;-64
2021/06/01 02:55:47;;;;;;;11.95;4.20;;;17.20;69.30;;;;;;5053959;28;20370;-64
2021/06/01 02:58:53;;;;;;;13.38;4.53;;;17.10;69.60;;;;;;5053625;28;20068;-65
2021/06/01 03:01:57;;;;;;;10.55;3.53;;;17.10;70.00;;;;;;5053258;28;20040;-65
2021/06/01 03:05:05;;;;;;;6.47;3.78;;;17.10;70.30;;;;;;5053645;28;20051;-64
2021/06/01 03:08:12;;;;;;;9.70;4.45;;;17.00;70.80;;;;;;5054583;28;20068;-64
2021/06/01 03:11:19;;;;;;;7.30;3.88;;;17.00;71.30;;;;;;5053214;28;20044;-64
2021/06/01 03:14:22;;;;;;;8.70;4.60;;;16.90;71.20;;;;;;5053565;28;20047;-64
2021/06/01 03:17:26;;;;;;;10.27;4.53;;;16.90;71.50;;;;;;5053024;28;20045;-64
2021/06/01 03:20:30;;;;;;;7.80;4.13;;;16.90;71.90;;;;;;5053155;28;20059;-64
2021/06/01 03:23:35;;;;;;;11.77;4.30;;;16.80;71.50;;;;;;5053259;28;20499;-64
2021/06/01 03:26:38;;;;;;;11.70;4.25;;;16.90;72.10;;;;;;5053316;28;20052;-64
2021/06/01 03:29:42;;;;;;;11.57;4.60;;;17.00;72.00;;;;;;5052854;28;20219;-65
2021/06/01 03:32:46;;;;;;;7.78;4.20;;;17.00;72.00;;;;;;5052829;28;20095;-65
2021/06/01 03:35:50;;;;;;;10.80;4.35;;;17.00;72.90;;;;;;5053067;28;20428;-63
2021/06/01 03:38:54;;;;;;;12.23;4.90;;;16.90;73.80;;;;;;5052998;28;20393;-64
2021/06/01 03:41:59;;;;;;;10.25;4.72;;;16.80;74.80;;;;;;5053108;28;20067;-66
2021/06/01 03:45:03;;;;;;;12.45;5.07;;;16.80;75.70;;;;;;5053237;28;20043;-64
2021/06/01 03:48:07;;;;;;;10.38;4.85;;;16.90;75.90;;;;;;5052655;28;20043;-65
2021/06/01 03:51:11;;;;;;;13.52;4.80;;;17.00;75.70;;;;;;5052911;28;20199;-65
2021/06/01 03:54:15;;;;;;;14.20;5.28;;;17.00;75.10;;;;;;5053118;28;20051;-64
2021/06/01 03:57:19;;;;;;;13.48;5.32;;;17.10;74.70;;;;;;5052498;28;20056;-65
2021/06/01 04:00:28;;;;;;;13.88;5.15;;;17.10;75.40;;;;;;5052316;28;20048;-65
2021/06/01 04:03:37;;;;;;;12.23;5.30;;;17.00;74.90;;;;;;5052339;28;20060;-66
2021/06/01 04:06:44;;;;;;;10.15;5.15;;;17.00;73.90;;;;;;5052511;28;20040;-64
2021/06/01 04:09:48;;;;;;;9.93;4.72;;;17.10;73.40;;;;;;5052743;28;20048;-67
2021/06/01 04:12:52;;;;;;;23.23;6.43;;;17.10;74.00;;;;;;5051599;28;20033;-64
2021/06/01 04:15:56;;;;;;;18.20;5.00;;;17.20;74.10;;;;;;5052706;28;20048;-66
2021/06/01 04:19:01;;;;;;;17.27;5.25;;;17.20;74.00;;;;;;5052608;28;20397;-65
2021/06/01 04:22:05;;;;;;;9.75;4.50;;;17.10;74.40;;;;;;5052188;28;20468;-65
2021/06/01 04:25:10;;;;;;;19.40;5.20;;;17.10;73.90;;;;;;5052248;28;20037;-66
2021/06/01 04:28:14;;;;;;;12.82;4.72;;;17.30;73.90;;;;;;5051370;28;20135;-66
2021/06/01 04:31:18;;;;;;;11.50;4.50;;;17.40;71.80;;;;;;5052081;28;20397;-65
2021/06/01 04:34:22;;;;;;;7.45;4.30;;;17.50;70.60;;;;;;5052378;28;20670;-65
2021/06/01 04:37:26;;;;;;;11.18;4.00;;;17.80;69.40;;;;;;5051936;28;20054;-66
2021/06/01 04:40:31;;;;;;;10.93;4.50;;;18.10;68.70;;;;;;5051965;28;20392;-65
2021/06/01 04:43:35;;;;;;;10.07;4.35;;;18.60;66.10;;;;;;5051533;28;20047;-65
2021/06/01 04:46:42;;;;;;;9.60;4.30;;;19.30;64.50;;;;;;5051684;28;20036;-65
2021/06/01 04:49:48;;;;;;;14.27;4.32;;;19.80;63.00;;;;;;5051554;28;20043;-64
2021/06/01 04:52:52;;;;;;;21.85;4.82;;;20.40;60.80;;;;;;5051851;28;20044;-64
2021/06/01 04:55:56;;;;;;;31.98;5.22;;;20.60;59.70;;;;;;5051877;28;20059;-64
2021/06/01 04:59:00;;;;;;;24.65;5.28;;;20.70;59.80;;;;;;5050761;28;20040;-66
2021/06/01 05:02:05;;;;;;;28.50;5.55;;;20.90;59.20;;;;;;5051445;28;20048;-64
2021/06/01 05:05:10;;;;;;;17.85;4.72;;;20.80;58.60;;;;;;5051571;28;20515;-64
2021/06/01 05:08:13;;;;;;;15.70;4.30;;;20.60;59.90;;;;;;5051443;28;20476;-63
2021/06/01 05:11:17;;;;;;;20.52;5.55;;;20.80;62.20;;;;;;5051182;28;20044;-63
2021/06/01 05:14:21;;;;;;;13.65;4.97;;;21.10;59.60;;;;;;5051285;28;20044;-63
2021/06/01 05:17:26;;;;;;;20.20;5.05;;;21.10;58.90;;;;;;5051286;28;20535;-63
2021/06/01 05:20:30;;;;;;;22.73;5.40;;;21.10;58.20;;;;;;5051353;28;20040;-63
2021/06/01 05:23:35;;;;;;;15.68;4.68;;;21.10;59.60;;;;;;5050947;28;20052;-63
2021/06/01 05:26:41;;;;;;;12.93;4.00;;;21.60;58.50;;;;;;5051201;28;20052;-63
2021/06/01 05:29:51;;;;;;;23.83;5.38;;;22.20;55.80;;;;;;5050992;28;20665;-64
2021/06/01 05:33:14;;;;;;;32.45;6.75;;;22.70;54.00;;;;;;5051118;28;20107;-63
2021/06/01 05:36:18;;;;;;;16.70;5.65;;;23.00;52.80;;;;;;5050672;28;20107;-62
2021/06/01 05:39:22;;;;;;;12.82;5.30;;;23.20;51.90;;;;;;5038543;28;20047;-63
2021/06/01 05:42:26;;;;;;;14.73;5.18;;;23.40;50.20;;;;;;5050847;28;20048;-63
2021/06/01 05:45:30;;;;;;;16.70;5.50;;;23.10;51.20;;;;;;5050726;28;20044;-63
2021/06/01 05:48:36;;;;;;;15.90;5.43;;;23.10;49.70;;;;;;5049823;28;20056;-63
2021/06/01 05:51:40;;;;;;;18.20;5.30;;;23.00;49.70;;;;;;5050659;28;20052;-62
2021/06/01 05:54:44;;;;;;;13.82;5.13;;;23.00;49.00;;;;;;5050656;28;20408;-64
2021/06/01 05:57:48;;;;;;;13.35;4.57;;;23.00;49.40;;;;;;5049855;28;20063;-66
2021/06/01 06:00:54;;;;;;;9.45;4.05;;;23.30;48.60;;;;;;5051038;28;20044;-66
2021/06/01 06:03:57;;;;;;;22.63;4.45;;;23.60;48.80;;;;;;5050751;28;20511;-66
2021/06/01 06:07:01;;;;;;;19.00;4.38;;;23.80;47.90;;;;;;5051000;28;20500;-66
2021/06/01 06:10:07;;;;;;;13.35;4.45;;;23.90;47.50;;;;;;5052878;28;20496;-66
2021/06/01 06:13:12;;;;;;;17.50;4.22;;;24.10;46.90;;;;;;5054862;28;20046;-65
2021/06/01 06:16:19;;;;;;;15.32;3.33;;;24.00;44.30;;;;;;5054518;28;20060;-64
2021/06/01 06:19:23;;;;;;;11.63;4.28;;;23.80;44.00;;;;;;5053183;28;20048;-65
2021/06/01 06:22:28;;;;;;;7.05;3.47;;;24.00;44.50;;;;;;5055883;28;20040;-65
2021/06/01 06:25:32;;;;;;;11.32;3.70;;;24.30;44.30;;;;;;5054979;28;20033;-65
2021/06/01 06:28:37;;;;;;;9.77;3.70;;;24.60;42.80;;;;;;5055080;28;20047;-66
2021/06/01 06:31:41;;;;;;;9.70;3.17;;;25.00;42.80;;;;;;5054396;28;20036;-66
2021/06/01 06:34:45;;;;;;;8.18;3.65;;;25.00;40.90;;;;;;5053761;28;20040;-65
2021/06/01 06:37:49;;;;;;;10.13;3.20;;;25.00;41.70;;;;;;5054105;28;20055;-65
2021/06/01 06:41:14;;;;;;;4.43;2.50;;;24.90;41.80;;;;;;5054322;28;20051;-65
2021/06/01 06:44:19;;;;;;;8.50;2.25;;;25.10;40.20;;;;;;5054214;28;20420;-65
2021/06/01 06:47:28;;;;;;;7.82;2.20;;;25.50;39.10;;;;;;5053536;28;20044;-65
2021/06/01 06:50:33;;;;;;;5.07;2.40;;;25.60;38.80;;;;;;5053978;28;20044;-65
2021/06/01 06:53:38;;;;;;;10.90;2.03;;;26.00;38.90;;;;;;5053928;28;20065;-65
2021/06/01 06:56:43;;;;;;;8.27;2.20;;;26.40;37.80;;;;;;5053713;28;20068;-65
2021/06/01 06:59:47;;;;;;;7.78;1.90;;;26.50;37.70;;;;;;5054018;28;20504;-65
2021/06/01 07:02:52;;;;;;;12.70;2.40;;;26.40;37.00;;;;;;5053873;28;20060;-65
2021/06/01 07:05:56;;;;;;;15.98;3.38;;;26.10;37.90;;;;;;5053740;28;20095;-65
2021/06/01 07:09:00;;;;;;;3.47;1.75;;;26.20;37.50;;;;;;5053851;28;20048;-66
2021/06/01 07:12:04;;;;;;;4.72;2.00;;;26.50;36.90;;;;;;5053499;28;20598;-66
2021/06/01 07:15:35;;;;;;;5.18;2.30;;;26.40;37.10;;;;;;5052950;28;20041;-66
2021/06/01 07:18:40;;;;;;;8.23;2.08;;;26.70;37.10;;;;;;5053530;28;20048;-65
2021/06/01 07:21:44;;;;;;;4.28;1.52;;;26.90;37.30;;;;;;5052623;28;20512;-67
2021/06/01 07:24:48;;;;;;;4.20;2.10;;;26.80;36.10;;;;;;5051223;28;20041;-66
2021/06/01 07:27:53;;;;;;;2.97;1.83;;;26.80;37.40;;;;;;5052674;28;20040;-67
2021/06/01 07:31:00;;;;;;;10.70;2.00;;;27.10;36.60;;;;;;5052944;28;20052;-67
2021/06/01 07:34:04;;;;;;;9.18;2.30;;;27.20;36.70;;;;;;5053307;28;20044;-67
2021/06/01 07:37:08;;;;;;;6.80;1.80;;;27.20;36.60;;;;;;5053208;28;20417;-68
2021/06/01 07:40:12;;;;;;;2.90;1.60;;;27.50;36.70;;;;;;5053290;28;20041;-67
2021/06/01 07:43:17;;;;;;;6.10;2.08;;;27.70;36.10;;;;;;5051973;28;20043;-67
2021/06/01 07:46:21;;;;;;;2.85;1.70;;;27.60;36.10;;;;;;5053202;28;20048;-67
2021/06/01 07:49:26;;;;;;;7.22;2.00;;;27.20;36.20;;;;;;5053112;28;20052;-66
2021/06/01 07:52:29;;;;;;;4.72;1.80;;;27.00;37.00;;;;;;5052919;28;20048;-67
2021/06/01 07:55:37;;;;;;;5.80;2.00;;;26.90;36.70;;;;;;5052191;28;20528;-67
2021/06/01 07:58:46;;;;;;;5.38;2.22;;;27.10;36.60;;;;;;5052995;28;20398;-67
2021/06/01 08:01:50;;;;;;;7.53;1.92;;;27.30;36.60;;;;;;5052551;28;20036;-68
2021/06/01 08:04:54;;;;;;;9.38;1.60;;;27.10;37.40;;;;;;5052248;28;20057;-67
2021/06/01 08:07:58;;;;;;;6.05;1.80;;;27.10;37.40;;;;;;5051759;28;20041;-68
2021/06/01 08:11:03;;;;;;;2.95;1.73;;;27.00;37.00;;;;;;5052251;28;20047;-68
2021/06/01 08:14:07;;;;;;;3.28;2.00;;;26.80;36.90;;;;;;5052736;28;20057;-67
2021/06/01 08:17:12;;;;;;;2.05;1.73;;;26.70;37.20;;;;;;5052213;28;20049;-67
2021/06/01 08:20:36;;;;;;;3.40;1.58;;;26.60;37.00;;;;;;5052464;28;20037;-68
2021/06/01 08:23:40;;;;;;;3.60;2.25;;;26.70;37.50;;;;;;5051995;28;20037;-67
2021/06/01 08:26:45;;;;;;;3.50;1.67;;;26.80;36.70;;;;;;5052430;28;20036;-67
2021/06/01 08:29:49;;;;;;;7.75;2.95;;;26.50;37.20;;;;;;5052206;28;20025;-67
2021/06/01 08:32:53;;;;;;;13.10;2.03;;;26.40;37.20;;;;;;5051406;28;20048;-68
2021/06/01 08:35:58;;;;;;;6.18;2.45;;;26.60;36.80;;;;;;5052341;28;20139;-68
2021/06/01 08:39:05;;;;;;;9.68;1.50;;;26.80;37.50;;;;;;5052120;28;20048;-68
2021/06/01 08:42:09;;;;;;;4.60;1.55;;;27.10;36.90;;;;;;5052064;28;20606;-69
2021/06/01 08:45:13;;;;;;;6.90;1.80;;;26.80;36.30;;;;;;5051156;28;20033;-68
2021/06/01 08:48:19;;;;;;;3.67;1.58;;;27.00;36.30;;;;;;5052043;28;20044;-68
2021/06/01 08:51:25;;;;;;;2.90;1.63;;;27.30;36.30;;;;;;5051516;28;20060;-68
2021/06/01 08:54:33;;;;;;;12.05;1.92;;;27.50;36.20;;;;;;5051697;28;20040;-67
2021/06/01 08:57:38;;;;;;;9.35;2.63;;;27.60;35.60;;;;;;5051422;28;20064;-69
2021/06/01 09:00:43;;;;;;;7.13;1.60;;;27.80;35.40;;;;;;5051814;28;20048;-67
2021/06/01 09:03:53;;;;;;;2.50;1.50;;;27.20;34.80;;;;;;5051262;28;20049;-67
2021/06/01 09:07:10;;;;;;;5.15;2.00;;;27.10;36.20;;;;;;5051708;28;20509;-67
2021/06/01 09:13:52;;;;;;;8.30;1.73;;;27.00;35.30;;;;;;5051487;28;20048;-68
2021/06/01 09:23:23;;;;;;;4.93;1.60;;;26.40;37.00;;;;;;5050976;28;20436;-70
2021/06/01 09:26:56;;;;;;;5.82;1.63;;;26.80;38.00;;;;;;5051347;28;20044;-71
2021/06/01 09:30:00;;;;;;;5.72;1.60;;;27.30;37.50;;;;;;5050450;28;20047;-71
2021/06/01 09:33:10;;;;;;;7.10;1.45;;;27.60;35.40;;;;;;5051035;28;20048;-70
2021/06/01 09:36:21;;;;;;;2.97;1.20;;;27.50;32.90;;;;;;5050309;28;20045;-71
2021/06/01 09:39:25;;;;;;;4.38;1.63;;;27.20;32.80;;;;;;5051006;28;20045;-69
2021/06/01 09:42:32;;;;;;;4.93;1.38;;;27.00;33.50;;;;;;5050812;28;20037;-70
2021/06/01 09:45:37;;;;;;;6.88;1.35;;;26.70;34.00;;;;;;5050129;28;20048;-70
2021/06/01 09:48:44;;;;;;;5.05;1.30;;;26.60;34.60;;;;;;5050911;28;20037;-70
2021/06/01 09:51:57;;;;;;;7.97;1.70;;;26.70;34.80;;;;;;5050854;28;20055;-71
2021/06/01 09:55:15;;;;;;;4.55;1.45;;;26.90;34.70;;;;;;5049598;28;20595;-71
2021/06/01 09:58:38;;;;;;;10.95;1.52;;;26.80;33.40;;;;;;5050651;28;20060;-71
2021/06/01 10:01:42;;;;;;;2.35;1.38;;;26.70;33.60;;;;;;5050670;28;20048;-71
2021/06/01 10:05:06;;;;;;;6.28;1.33;;;26.90;34.40;;;;;;5050739;28;20076;-70
2021/06/01 10:08:17;;;;;;;7.78;1.50;;;26.60;34.00;;;;;;5049834;28;20049;-71
2021/06/01 10:11:21;;;;;;;4.65;1.40;;;26.50;34.10;;;;;;5050521;28;20037;-70
2021/06/01 10:14:26;;;;;;;6.35;1.70;;;26.80;34.60;;;;;;5049662;28;20523;-71
2021/06/01 10:17:30;;;;;;;4.63;1.95;;;27.10;35.00;;;;;;5050508;28;20404;-71
2021/06/01 10:20:36;;;;;;;2.60;1.88;;;27.10;34.90;;;;;;5050760;28;20029;-71
2021/06/01 10:23:42;;;;;;;6.63;1.60;;;26.90;35.60;;;;;;5050856;28;20045;-70
2021/06/01 10:26:47;;;;;;;6.72;2.70;;;27.00;36.10;;;;;;5050595;28;20070;-71
2021/06/01 10:29:51;;;;;;;5.75;2.00;;;27.20;36.10;;;;;;5050773;28;20364;-71
2021/06/01 10:33:00;;;;;;;5.93;1.80;;;26.80;34.80;;;;;;5050782;28;20056;-71
2021/06/01 10:53:06;;;;;;;4.47;1.77;;;26.30;36.80;;;;;;5050359;28;20404;-67
2021/06/01 10:56:13;;;;;;;4.28;1.85;;;25.90;35.70;;;;;;5050542;28;20037;-67
2021/06/01 10:59:17;;;;;;;2.75;1.50;;;25.80;36.40;;;;;;5053926;28;20044;-67
2021/06/01 11:02:21;;;;;;;9.38;1.80;;;26.10;36.60;;;;;;5053833;28;20179;-66
2021/06/01 11:05:26;;;;;;;3.97;1.77;;;26.20;36.70;;;;;;5052728;28;20061;-66
2021/06/01 11:08:36;;;;;;;2.88;1.92;;;26.20;37.30;;;;;;5053743;28;20048;-66
2021/06/01 11:11:51;;;;;;;3.13;1.67;;;26.40;37.00;;;;;;5053644;28;20037;-66
2021/06/01 11:14:57;;;;;;;3.95;1.95;;;26.40;36.60;;;;;;5053969;28;20535;-66
2021/06/01 11:33:45;;;;;;;4.00;1.70;;;26.50;37.90;;;;;;5053398;28;20049;-66
2021/06/01 11:36:49;;;;;;;5.82;1.50;;;26.30;37.20;;;;;;5053286;28;20041;-66
2021/06/01 11:40:53;;;;;;;4.30;1.73;;;26.10;36.40;;;;;;5053320;28;20045;-66
2021/06/01 11:43:20;;;;;;;4.55;1.60;;;25.90;36.90;;;;;;5053153;28;20033;-66
2021/06/01 11:52:57;;;;;;;6.03;1.70;;;25.80;37.50;;;;;;5052766;28;20063;-67
2021/06/01 11:56:03;;;;;;;10.43;2.25;;;26.00;37.40;;;;;;5052901;28;20048;-67
2021/06/01 12:19:10;;;;;;;5.28;1.65;;;25.50;36.40;;;;;;5052645;28;20048;-66
2021/06/01 12:22:14;;;;;;;2.35;1.60;;;25.60;37.10;;;;;;5052476;28;20098;-67
2021/06/01 12:25:19;;;;;;;2.33;1.60;;;25.70;36.30;;;;;;5052373;28;20040;-67
2021/06/01 12:32:05;;;;;;;4.28;1.60;;;25.90;36.30;;;;;;5051668;28;20052;-67
2021/06/01 12:35:52;;;;;;;6.07;1.48;;;25.90;36.50;;;;;;5052216;28;20040;-67
2021/06/01 13:21:06;;;;;;;3.00;1.70;;;25.90;35.30;;;;;;5050950;28;20036;-66
2021/06/01 13:30:10;;;;;;;2.50;1.50;;;26.00;35.20;;;;;;5051465;28;20037;-65
2021/06/01 13:38:21;;;;;;;12.00;2.70;;;26.20;46.60;;;;;;5051127;28;20033;-66
2021/06/01 14:22:18;;;;;;;10.30;2.28;;;26.70;46.30;;;;;;5047909;28;20040;-67
2021/06/01 15:49:31;;;;;;;14.05;3.90;;;25.70;48.30;;;;;;5053058;28;20499;-66
2021/06/01 16:11:16;;;;;;;5.70;2.90;;;25.70;48.20;;;;;;5053043;28;20048;-66
2021/06/01 16:23:26;;;;;;;14.15;3.25;;;25.30;50.40;;;;;;5051084;28;20036;-67
2021/06/01 16:33:41;;;;;;;11.15;2.80;;;25.30;51.10;;;;;;5051603;28;20608;-67
2021/06/01 17:03:58;;;;;;;10.98;2.80;;;25.10;50.80;;;;;;5051436;28;20052;-67
2021/06/01 17:07:33;;;;;;;8.10;2.83;;;25.00;51.20;;;;;;5051532;28;20051;-67
2021/06/01 17:14:02;;;;;;;10.57;3.08;;;25.00;51.50;;;;;;5051243;28;20047;-67
2021/06/01 17:17:09;;;;;;;21.05;4.57;;;25.00;53.00;;;;;;5051193;28;20048;-67
2021/06/01 17:36:59;;;;;;;8.32;2.88;;;24.70;54.80;;;;;;5051145;28;20055;-65
2021/06/01 17:40:04;;;;;;;13.93;3.10;;;24.70;55.40;;;;;;5051138;28;20064;-66
2021/06/01 17:43:10;;;;;;;5.70;2.40;;;24.70;55.40;;;;;;5050635;28;20044;-66
2021/06/01 17:46:16;;;;;;;10.65;3.08;;;24.70;55.50;;;;;;5050567;28;20048;-66
2021/06/01 17:49:26;;;;;;;8.95;2.50;;;24.60;55.30;;;;;;5050265;28;20397;-66
2021/06/01 17:52:32;;;;;;;9.20;3.42;;;24.60;54.60;;;;;;5050742;28;20040;-67
2021/06/01 17:55:37;;;;;;;17.77;3.40;;;24.60;54.20;;;;;;5050851;28;20056;-67
2021/06/01 17:58:42;;;;;;;8.80;2.80;;;24.50;54.40;;;;;;5050722;28;20112;-67
2021/06/01 18:01:47;;;;;;;6.35;2.63;;;24.50;54.10;;;;;;5050291;28;20065;-67
2021/06/01 18:04:59;;;;;;;9.48;2.80;;;24.40;54.10;;;;;;5050141;28;20052;-69
2021/06/01 18:08:16;;;;;;;11.27;2.67;;;24.40;55.50;;;;;;5050714;28;20048;-68
2021/06/01 19:02:17;;;;;;;8.30;2.90;;;23.50;57.80;;;;;;5050047;28;20092;-67
2021/06/01 19:25:21;;;;;;;7.55;3.00;;;23.30;56.80;;;;;;5053911;28;20048;-67
2021/06/01 19:52:23;;;;;;;18.05;4.13;;;22.70;60.80;;;;;;5053080;28;20052;-67
2021/06/01 19:55:31;;;;;;;14.45;4.07;;;22.60;60.60;;;;;;5053470;28;20047;-67
2021/06/01 19:58:36;;;;;;;18.73;4.25;;;22.60;60.40;;;;;;5052943;28;20056;-67
2021/06/01 20:01:40;;;;;;;17.27;4.38;;;22.50;61.30;;;;;;5052575;28;20107;-67
2021/06/01 20:04:45;;;;;;;17.95;4.05;;;22.40;62.00;;;;;;5052494;28;20060;-67
2021/06/01 20:07:50;;;;;;;12.95;3.90;;;22.30;61.80;;;;;;5052485;28;20040;-67
2021/06/01 20:10:56;;;;;;;17.20;4.40;;;22.20;61.60;;;;;;5052522;28;20048;-67
2021/06/01 20:14:01;;;;;;;12.75;4.65;;;22.00;62.00;;;;;;5052458;28;20052;-66
2021/06/01 20:17:24;;;;;;;13.18;4.63;;;21.90;62.40;;;;;;5052698;28;20044;-67
2021/06/01 20:20:29;;;;;;;17.48;4.97;;;21.90;63.30;;;;;;5052520;28;20400;-67
2021/06/01 20:23:36;;;;;;;13.13;4.50;;;21.90;63.90;;;;;;5052431;28;20040;-66
2021/06/01 20:26:44;;;;;;;12.10;4.35;;;21.90;64.80;;;;;;5052406;28;20048;-67
2021/06/01 20:29:55;;;;;;;9.15;4.10;;;22.00;65.00;;;;;;5052109;28;20515;-67
2021/06/01 20:33:09;;;;;;;14.70;5.78;;;22.00;65.10;;;;;;5052355;28;20040;-66
2021/06/01 20:36:18;;;;;;;14.82;5.18;;;22.10;65.10;;;;;;5053195;28;20056;-67
2021/06/01 20:39:23;;;;;;;15.80;5.22;;;22.00;65.10;;;;;;5052086;28;20060;-67
2021/06/01 20:42:33;;;;;;;14.75;4.47;;;21.90;65.10;;;;;;5052252;28;20483;-67
2021/06/01 20:45:40;;;;;;;14.02;5.22;;;21.80;65.80;;;;;;5051871;28;20056;-66
2021/06/01 20:48:46;;;;;;;10.98;5.53;;;21.70;66.10;;;;;;5052081;28;20059;-67
2021/06/01 20:51:52;;;;;;;23.63;4.20;;;21.70;66.20;;;;;;5050819;28;20484;-67
2021/06/01 20:54:56;;;;;;;20.92;5.40;;;21.60;66.10;;;;;;5052135;28;20055;-67
2021/06/01 20:58:02;;;;;;;32.15;5.60;;;21.60;66.40;;;;;;5052037;28;20043;-66
2021/06/01 21:01:11;;;;;;;31.88;7.28;;;21.50;66.90;;;;;;5051633;28;20051;-64
2021/06/01 21:04:19;;;;;;;14.63;5.70;;;21.40;67.10;;;;;;5051568;28;20052;-67
2021/06/01 21:07:23;;;;;;;23.38;4.88;;;21.30;67.00;;;;;;5050465;28;20181;-67
2021/06/01 21:10:28;;;;;;;18.13;5.25;;;21.30;66.70;;;;;;5050197;28;20059;-67
2021/06/01 21:13:32;;;;;;;17.80;5.88;;;21.30;66.70;;;;;;5051891;28;20060;-66
2021/06/01 21:16:37;;;;;;;16.83;5.63;;;21.30;66.90;;;;;;5051591;28;20052;-65
2021/06/01 21:19:42;;;;;;;17.98;6.63;;;21.20;67.00;;;;;;5050827;28;20055;-66
2021/06/01 21:22:48;;;;;;;14.73;7.03;;;21.10;66.90;;;;;;5051794;28;20059;-67
2021/06/01 21:25:53;;;;;;;22.67;6.75;;;21.10;67.40;;;;;;5051591;28;20055;-67
2021/06/01 21:28:57;;;;;;;25.90;7.00;;;21.10;67.80;;;;;;5051816;28;20047;-67
2021/06/01 21:32:07;;;;;;;24.92;7.43;;;21.00;67.60;;;;;;5051585;28;20040;-67
2021/06/01 21:35:13;;;;;;;23.42;6.95;;;20.90;67.70;;;;;;5051227;28;20043;-67
2021/06/01 21:38:28;;;;;;;21.65;6.90;;;20.80;68.10;;;;;;5052225;28;20040;-66
2021/06/01 21:41:33;;;;;;;31.00;8.48;;;20.70;68.80;;;;;;5050577;28;20551;-67
2021/06/01 21:44:40;;;;;;;26.33;7.20;;;20.30;69.70;;;;;;5050314;28;20043;-67
2021/06/01 21:47:51;;;;;;;24.88;8.02;;;20.30;70.80;;;;;;5051272;28;20048;-67
2021/06/01 21:50:56;;;;;;;22.33;7.88;;;20.30;70.90;;;;;;5051211;28;20420;-67
2021/06/01 21:54:01;;;;;;;30.58;8.43;;;20.30;70.80;;;;;;5050483;28;20032;-67
2021/06/01 21:57:07;;;;;;;19.00;7.78;;;20.20;71.10;;;;;;5051167;28;20064;-67
2021/06/01 22:00:16;;;;;;;21.67;8.25;;;19.90;72.20;;;;;;5050809;28;20052;-67
2021/06/01 22:03:23;;;;;;;25.42;8.15;;;19.90;72.30;;;;;;5051001;28;20056;-67
2021/06/01 22:06:27;;;;;;;19.67;8.70;;;20.10;71.80;;;;;;5050956;28;20048;-67
2021/06/01 22:09:33;;;;;;;15.68;7.60;;;20.20;71.20;;;;;;5050579;28;20044;-67
2021/06/01 22:12:39;;;;;;;26.27;7.88;;;20.20;71.00;;;;;;5050988;28;20420;-67
2021/06/01 22:15:43;;;;;;;20.80;8.75;;;20.20;71.00;;;;;;5049781;28;20048;-67
2021/06/01 22:18:50;;;;;;;17.98;7.80;;;20.10;71.30;;;;;;5050759;28;20047;-66
2021/06/01 22:21:56;;;;;;;15.50;7.00;;;20.10;71.70;;;;;;5050655;28;20495;-67
2021/06/01 22:25:00;;;;;;;21.48;7.40;;;20.00;71.50;;;;;;5050698;28;20048;-67
2021/06/01 22:28:05;;;;;;;24.10;7.80;;;20.10;71.50;;;;;;5050576;28;20047;-66
2021/06/01 22:31:16;;;;;;;23.15;7.72;;;19.90;71.90;;;;;;5050149;28;20052;-67
2021/06/01 22:34:21;;;;;;;17.98;7.28;;;19.70;71.60;;;;;;5049779;28;20079;-66
2021/06/01 22:37:26;;;;;;;19.90;6.75;;;19.50;71.70;;;;;;5049568;28;20048;-66
2021/06/01 22:40:30;;;;;;;22.10;7.35;;;19.40;70.70;;;;;;5049973;28;20060;-66
2021/06/01 22:43:37;;;;;;;12.88;5.95;;;19.10;71.00;;;;;;5050501;28;20052;-66
2021/06/01 22:46:42;;;;;;;12.00;5.10;;;19.00;70.80;;;;;;5050571;28;20051;-66
2021/06/01 22:49:48;;;;;;;7.03;4.63;;;18.90;70.30;;;;;;5050450;28;20048;-66
2021/06/01 22:52:55;;;;;;;7.22;4.50;;;18.80;70.10;;;;;;5051510;28;20040;-67
2021/06/01 22:56:05;;;;;;;8.65;4.68;;;18.70;70.00;;;;;;5053932;28;20107;-67
2021/06/01 22:59:22;;;;;;;9.73;4.70;;;18.70;70.60;;;;;;5053783;28;20111;-67
2021/06/01 23:02:30;;;;;;;10.10;4.60;;;18.80;70.50;;;;;;5053773;28;20377;-67
2021/06/01 23:05:34;;;;;;;7.43;5.30;;;18.80;70.40;;;;;;5053774;28;20056;-67
2021/06/01 23:08:45;;;;;;;14.00;5.60;;;18.80;70.60;;;;;;5053731;28;20056;-67
2021/06/01 23:11:49;;;;;;;9.60;4.90;;;18.60;71.40;;;;;;5053479;28;20388;-67
2021/06/01 23:14:58;;;;;;;14.85;5.35;;;18.70;71.10;;;;;;5053628;28;20507;-67
2021/06/01 23:18:03;;;;;;;11.35;5.25;;;18.70;71.40;;;;;;5053824;28;20048;-67
2021/06/01 23:21:08;;;;;;;13.77;5.20;;;18.50;72.50;;;;;;5053620;28;20412;-67
2021/06/01 23:24:14;;;;;;;11.13;4.95;;;18.50;73.00;;;;;;5053817;28;20214;-67